Time;durP1;ratioP1;P1;durP2;ratioP2;P2;SDS_P1;SDS_P2;PMS_P1;PMS_P2;Temp;Humidity;BMP_temperature;BMP_pressure;BME280_temperature;BME280_humidity;BME280_pressure;Samples;Min_cycle;Max_cycle;Signal;HPM_P1;HPM_P2
2022/07/05 00:00:08;;;;;;;0.17;0.15;;;13.60;99.90;;;;;;5055843;28;20041;-85
2022/07/05 00:02:34;;;;;;;0.10;0.10;;;13.60;99.90;;;;;;5056000;28;20044;-83
2022/07/05 00:05:01;;;;;;;0.10;0.10;;;13.60;99.90;;;;;;5072371;28;20044;-83
2022/07/05 00:07:28;;;;;;;0.20;0.20;;;13.50;99.90;;;;;;5055829;28;20062;-84
2022/07/05 00:09:57;;;;;;;0.10;0.10;;;13.50;99.90;;;;;;5072001;28;20052;-85
2022/07/05 00:12:27;;;;;;;0.25;0.25;;;13.50;99.90;;;;;;5056016;28;20037;-84
2022/07/05 00:14:54;;;;;;;0.45;0.20;;;13.50;99.90;;;;;;5088854;28;20532;-83
2022/07/05 00:17:21;;;;;;;0.22;0.20;;;13.50;99.90;;;;;;5055298;28;20127;-83
2022/07/05 00:19:48;;;;;;;0.20;0.20;;;13.40;99.90;;;;;;5039661;28;20128;-83
2022/07/05 00:22:14;;;;;;;0.15;0.15;;;13.40;99.90;;;;;;5055303;28;20510;-83
2022/07/05 00:24:41;;;;;;;0.17;0.17;;;13.30;99.90;;;;;;5055092;28;20047;-83
2022/07/05 00:27:08;;;;;;;0.10;0.10;;;13.30;99.90;;;;;;5039168;28;20044;-82
2022/07/05 00:29:34;;;;;;;0.20;0.20;;;13.30;99.90;;;;;;5071390;28;20079;-83
2022/07/05 00:32:01;;;;;;;0.10;0.10;;;13.30;99.90;;;;;;5038798;28;20041;-83
2022/07/05 00:34:28;;;;;;;0.10;0.10;;;13.30;99.90;;;;;;5054905;28;20045;-84
2022/07/05 00:36:54;;;;;;;0.28;0.28;;;13.30;99.90;;;;;;5071774;28;20041;-85
2022/07/05 00:39:21;;;;;;;0.25;0.25;;;13.30;99.90;;;;;;5038845;28;20052;-83
2022/07/05 00:41:48;;;;;;;0.10;0.10;;;13.30;99.90;;;;;;5071320;28;20037;-83
2022/07/05 00:44:15;;;;;;;0.20;0.15;;;13.20;99.90;;;;;;5054932;28;20041;-84
2022/07/05 00:46:43;;;;;;;0.15;0.10;;;13.20;99.90;;;;;;5071595;28;20056;-85
2022/07/05 00:49:09;;;;;;;0.10;0.10;;;13.20;99.90;;;;;;5055041;28;20087;-84
2022/07/05 00:51:38;;;;;;;0.10;0.10;;;13.20;99.90;;;;;;5061298;28;20067;-83
2022/07/05 00:54:06;;;;;;;0.20;0.20;;;13.20;99.90;;;;;;5077570;28;20040;-84
2022/07/05 00:56:33;;;;;;;0.38;0.20;;;13.10;99.90;;;;;;5071509;28;20497;-85
2022/07/05 00:59:00;;;;;;;0.15;0.15;;;13.10;99.90;;;;;;5071318;28;20047;-85
2022/07/05 01:01:27;;;;;;;0.28;0.28;;;13.10;99.90;;;;;;5054378;28;20123;-85
2022/07/05 01:03:54;;;;;;;0.30;0.30;;;13.10;99.90;;;;;;5051137;28;20045;-85
2022/07/05 01:06:21;;;;;;;0.22;0.20;;;13.00;99.90;;;;;;5067619;28;20041;-83
2022/07/05 01:08:48;;;;;;;0.50;0.28;;;13.00;99.90;;;;;;5084296;28;20107;-83
2022/07/05 01:11:15;;;;;;;0.40;0.40;;;13.00;99.90;;;;;;5068201;28;20077;-83
2022/07/05 01:13:42;;;;;;;0.10;0.10;;;12.90;99.90;;;;;;5036668;28;20473;-83
2022/07/05 01:16:09;;;;;;;1.13;0.20;;;12.90;99.90;;;;;;5038181;28;20068;-84
2022/07/05 01:18:36;;;;;;;0.20;0.20;;;12.90;99.90;;;;;;5070987;28;20457;-84
2022/07/05 01:21:03;;;;;;;0.10;0.10;;;12.80;99.90;;;;;;5071081;28;20688;-83
2022/07/05 01:23:32;;;;;;;0.20;0.20;;;12.80;99.90;;;;;;5054178;28;20079;-85
2022/07/05 01:26:02;;;;;;;0.22;0.20;;;12.90;99.90;;;;;;5071181;28;20048;-85
2022/07/05 01:28:29;;;;;;;0.28;0.25;;;12.80;99.90;;;;;;5054189;28;20084;-82
2022/07/05 01:30:55;;;;;;;0.10;0.10;;;12.70;99.90;;;;;;5054208;28;20075;-85
2022/07/05 01:33:32;;;;;;;0.85;0.20;;;12.70;99.90;;;;;;5054330;28;20045;-85
2022/07/05 01:35:59;;;;;;;0.20;0.20;;;12.70;99.90;;;;;;5053845;28;20531;-83
2022/07/05 01:38:26;;;;;;;0.17;0.13;;;12.70;99.90;;;;;;5053963;28;20037;-84
2022/07/05 01:40:53;;;;;;;0.13;0.13;;;12.60;99.90;;;;;;5054262;28;20044;-83
2022/07/05 01:43:20;;;;;;;0.10;0.10;;;12.60;99.90;;;;;;5070218;28;20041;-84
2022/07/05 01:45:47;;;;;;;0.35;0.25;;;12.60;99.90;;;;;;5038172;28;20040;-85
2022/07/05 01:48:20;;;;;;;0.10;0.10;;;12.60;99.90;;;;;;5053862;28;20094;-85
2022/07/05 01:51:05;;;;;;;0.22;0.20;;;12.50;99.90;;;;;;5071058;28;20037;-84
2022/07/05 01:53:33;;;;;;;0.20;0.20;;;12.50;99.90;;;;;;5070199;28;20484;-83
2022/07/05 01:56:02;;;;;;;0.10;0.10;;;12.50;99.90;;;;;;5053617;28;20091;-83
2022/07/05 01:58:30;;;;;;;0.10;0.10;;;12.40;99.90;;;;;;5054096;28;20037;-83
2022/07/05 02:00:58;;;;;;;0.50;0.40;;;12.40;99.90;;;;;;5080889;28;20094;-85
2022/07/05 02:03:26;;;;;;;0.00;0.00;;;12.40;99.90;;;;;;5085370;28;20190;-84
2022/07/05 02:05:53;;;;;;;0.20;0.20;;;12.30;99.90;;;;;;5084259;28;20049;-86
2022/07/05 02:08:20;;;;;;;0.17;0.17;;;12.30;99.90;;;;;;5090220;28;20378;-83
2022/07/05 02:10:47;;;;;;;0.20;0.20;;;12.30;99.90;;;;;;5106999;28;20149;-81
2022/07/05 02:13:14;;;;;;;0.15;0.15;;;12.30;99.90;;;;;;5106513;28;20182;-81
2022/07/05 02:15:41;;;;;;;0.20;0.20;;;12.30;99.90;;;;;;5073626;28;20401;-83
2022/07/05 02:18:08;;;;;;;0.35;0.30;;;12.20;99.90;;;;;;5073209;28;20040;-83
2022/07/05 02:20:38;;;;;;;0.50;0.28;;;12.20;99.90;;;;;;5073291;28;20058;-81
2022/07/05 02:23:05;;;;;;;0.32;0.20;;;12.20;99.90;;;;;;5090287;28;20051;-83
2022/07/05 02:25:31;;;;;;;0.20;0.20;;;12.20;99.90;;;;;;5074322;28;20513;-83
2022/07/05 02:27:58;;;;;;;0.20;0.20;;;12.20;99.90;;;;;;5053757;28;20460;-83
2022/07/05 02:30:25;;;;;;;0.57;0.30;;;12.20;99.90;;;;;;5053071;28;20107;-81
2022/07/05 02:32:52;;;;;;;0.10;0.10;;;12.20;99.90;;;;;;5053085;28;20132;-82
2022/07/05 02:35:19;;;;;;;0.20;0.20;;;12.10;99.90;;;;;;5053147;28;20045;-81
2022/07/05 02:37:45;;;;;;;0.20;0.20;;;12.10;99.90;;;;;;5037355;28;20037;-84
2022/07/05 02:40:13;;;;;;;0.20;0.20;;;12.00;99.90;;;;;;5037117;28;20829;-83
2022/07/05 02:42:40;;;;;;;0.32;0.30;;;12.00;99.90;;;;;;5036906;28;20045;-82
2022/07/05 02:45:07;;;;;;;0.30;0.20;;;12.00;99.90;;;;;;5069515;28;20103;-82
2022/07/05 02:47:34;;;;;;;0.20;0.20;;;12.00;99.90;;;;;;5052993;28;20047;-82
2022/07/05 02:50:07;;;;;;;0.20;0.13;;;12.00;99.90;;;;;;5053149;28;20045;-83
2022/07/05 02:52:34;;;;;;;0.15;0.15;;;12.00;99.90;;;;;;5085948;28;20470;-83
2022/07/05 02:55:05;;;;;;;0.10;0.10;;;12.00;99.90;;;;;;5053116;28;20037;-83
2022/07/05 02:57:32;;;;;;;0.60;0.30;;;11.90;99.90;;;;;;5052955;28;20712;-83
2022/07/05 02:59:58;;;;;;;0.10;0.10;;;11.90;99.90;;;;;;5052940;28;20041;-81
2022/07/05 03:02:25;;;;;;;0.28;0.28;;;11.90;99.90;;;;;;5052542;28;20094;-82
2022/07/05 03:04:52;;;;;;;0.20;0.20;;;11.80;99.90;;;;;;5036250;28;20132;-82
2022/07/05 03:07:19;;;;;;;0.63;0.30;;;11.80;99.90;;;;;;5069260;28;20624;-83
2022/07/05 03:09:45;;;;;;;0.43;0.30;;;11.80;99.90;;;;;;5036687;28;20090;-83
2022/07/05 03:12:12;;;;;;;0.13;0.13;;;11.80;99.90;;;;;;5052962;28;20048;-83
2022/07/05 03:14:39;;;;;;;0.22;0.20;;;11.80;99.90;;;;;;5052596;28;20075;-81
2022/07/05 03:17:05;;;;;;;0.20;0.20;;;11.80;99.90;;;;;;5052400;28;20037;-81
2022/07/05 03:19:32;;;;;;;0.60;0.25;;;11.80;99.90;;;;;;5052583;28;20041;-83
2022/07/05 03:21:59;;;;;;;0.10;0.10;;;11.70;99.90;;;;;;5069365;28;20053;-82
2022/07/05 03:24:25;;;;;;;0.35;0.20;;;11.60;99.90;;;;;;5052738;28;20080;-81
2022/07/05 03:26:52;;;;;;;0.08;0.08;;;11.70;99.90;;;;;;5052973;28;20041;-81
2022/07/05 03:29:19;;;;;;;0.80;0.30;;;11.70;99.90;;;;;;5036079;28;20064;-83
2022/07/05 03:31:46;;;;;;;0.30;0.30;;;11.60;99.90;;;;;;5039589;28;20099;-81
2022/07/05 03:34:12;;;;;;;1.02;0.32;;;11.60;99.90;;;;;;5056410;28;20055;-83
2022/07/05 03:36:39;;;;;;;0.20;0.20;;;11.60;99.90;;;;;;5072826;28;20106;-81
2022/07/05 03:39:06;;;;;;;0.10;0.10;;;11.60;99.90;;;;;;5039827;28;20041;-82
2022/07/05 03:41:32;;;;;;;0.17;0.17;;;11.60;99.90;;;;;;5039645;28;20102;-82
2022/07/05 03:43:59;;;;;;;0.15;0.15;;;11.70;99.90;;;;;;5056460;28;20048;-81
2022/07/05 03:46:26;;;;;;;0.20;0.20;;;11.60;99.90;;;;;;5039577;28;20047;-81
2022/07/05 03:48:52;;;;;;;0.30;0.30;;;11.60;99.90;;;;;;5055901;28;20052;-81
2022/07/05 03:51:19;;;;;;;0.10;0.10;;;11.70;99.90;;;;;;5040079;28;20041;-81
2022/07/05 03:53:46;;;;;;;0.80;0.35;;;11.70;99.90;;;;;;5056069;28;20052;-81
2022/07/05 03:56:12;;;;;;;0.20;0.20;;;11.70;99.90;;;;;;5039778;28;20080;-83
2022/07/05 03:58:39;;;;;;;0.20;0.20;;;11.70;99.90;;;;;;5039929;28;20048;-83
2022/07/05 04:01:06;;;;;;;0.30;0.22;;;11.70;99.90;;;;;;5072713;28;20567;-84
2022/07/05 04:03:32;;;;;;;0.32;0.20;;;11.70;99.90;;;;;;5055893;28;20398;-83
2022/07/05 04:05:59;;;;;;;0.25;0.20;;;11.80;99.90;;;;;;5056039;28;20496;-83
2022/07/05 04:08:26;;;;;;;0.20;0.20;;;11.80;99.90;;;;;;5039512;28;20410;-83
2022/07/05 04:10:52;;;;;;;0.20;0.20;;;11.80;99.90;;;;;;5072492;28;20037;-81
2022/07/05 04:13:19;;;;;;;0.35;0.25;;;11.80;99.90;;;;;;5072368;28;20394;-83
2022/07/05 04:15:46;;;;;;;0.20;0.20;;;11.80;99.90;;;;;;5055587;28;20494;-82
2022/07/05 04:18:12;;;;;;;0.10;0.10;;;11.90;99.90;;;;;;5039341;28;20041;-83
2022/07/05 04:20:39;;;;;;;0.15;0.15;;;11.90;99.90;;;;;;5039273;28;20126;-82
2022/07/05 04:23:06;;;;;;;0.30;0.30;;;11.90;99.90;;;;;;5039297;28;20040;-82
2022/07/05 04:25:32;;;;;;;0.43;0.30;;;12.00;99.90;;;;;;5071750;28;20063;-83
2022/07/05 04:27:59;;;;;;;0.15;0.15;;;12.00;99.90;;;;;;5055456;28;20445;-81
2022/07/05 04:30:26;;;;;;;0.10;0.10;;;12.00;99.90;;;;;;5038956;28;20131;-83
2022/07/05 04:32:53;;;;;;;0.22;0.20;;;12.00;99.90;;;;;;5071676;28;20037;-81
2022/07/05 04:35:20;;;;;;;0.45;0.25;;;12.20;99.90;;;;;;5071524;28;20060;-83
2022/07/05 04:37:47;;;;;;;0.40;0.28;;;12.20;99.90;;;;;;5055122;28;20041;-83
2022/07/05 04:40:14;;;;;;;0.35;0.30;;;12.30;99.90;;;;;;5055230;28;20106;-81
2022/07/05 04:42:42;;;;;;;0.22;0.22;;;12.30;99.90;;;;;;5087614;28;20492;-83
2022/07/05 04:45:09;;;;;;;0.10;0.10;;;12.40;99.90;;;;;;5055069;28;20512;-81
2022/07/05 04:47:36;;;;;;;0.20;0.15;;;12.40;99.90;;;;;;5071395;28;20555;-81
2022/07/05 04:50:04;;;;;;;0.70;0.32;;;12.40;99.90;;;;;;5071081;28;20045;-83
2022/07/05 04:52:31;;;;;;;0.10;0.10;;;12.40;99.90;;;;;;5071677;28;20094;-84
2022/07/05 04:54:58;;;;;;;0.30;0.20;;;12.50;99.90;;;;;;5054732;28;20515;-81
2022/07/05 04:57:25;;;;;;;0.10;0.10;;;12.50;99.90;;;;;;5054952;28;20048;-82
2022/07/05 04:59:52;;;;;;;0.43;0.30;;;12.50;99.90;;;;;;5054961;28;20049;-83
2022/07/05 05:02:18;;;;;;;0.22;0.20;;;12.60;99.90;;;;;;5070852;28;20033;-83
2022/07/05 05:04:45;;;;;;;0.35;0.30;;;12.60;99.90;;;;;;5054760;28;20048;-83
2022/07/05 05:07:12;;;;;;;0.28;0.20;;;12.70;99.90;;;;;;5054463;28;20040;-83
2022/07/05 05:09:39;;;;;;;0.20;0.20;;;12.70;99.90;;;;;;5038318;28;20055;-81
2022/07/05 05:12:06;;;;;;;0.20;0.20;;;12.80;99.90;;;;;;5054625;28;20033;-81
2022/07/05 05:14:33;;;;;;;0.10;0.10;;;12.90;99.90;;;;;;5054621;28;20561;-83
2022/07/05 05:17:00;;;;;;;0.20;0.20;;;12.90;99.90;;;;;;5038012;28;20041;-82
2022/07/05 05:19:28;;;;;;;0.28;0.22;;;13.00;99.90;;;;;;5038292;28;20132;-81
2022/07/05 05:21:54;;;;;;;0.15;0.15;;;13.10;99.90;;;;;;5054511;28;20045;-83
2022/07/05 05:24:21;;;;;;;0.10;0.10;;;13.10;99.90;;;;;;5054064;28;20504;-81
2022/07/05 05:26:49;;;;;;;0.10;0.10;;;13.20;99.90;;;;;;5037896;28;20085;-82
2022/07/05 05:29:15;;;;;;;0.38;0.28;;;13.20;99.90;;;;;;5070665;28;20102;-82
2022/07/05 05:31:42;;;;;;;0.13;0.10;;;13.30;99.90;;;;;;5054166;28;20076;-83
2022/07/05 05:34:09;;;;;;;0.50;0.28;;;13.30;99.90;;;;;;5054188;28;20041;-81
2022/07/05 05:36:36;;;;;;;1.55;0.30;;;13.40;99.90;;;;;;5070468;28;20090;-81
2022/07/05 05:39:03;;;;;;;0.13;0.13;;;13.50;99.90;;;;;;5037839;28;20045;-83
2022/07/05 05:41:29;;;;;;;0.10;0.10;;;13.50;99.90;;;;;;5037499;28;20049;-82
2022/07/05 05:43:56;;;;;;;0.22;0.17;;;13.60;99.90;;;;;;5069929;28;20041;-81
2022/07/05 05:46:23;;;;;;;0.10;0.10;;;13.70;99.90;;;;;;5037254;28;20051;-82
2022/07/05 05:48:49;;;;;;;0.28;0.28;;;13.70;99.90;;;;;;5053544;28;20049;-83
2022/07/05 05:51:16;;;;;;;0.13;0.13;;;13.90;99.90;;;;;;5070056;28;20037;-83
2022/07/05 05:53:45;;;;;;;0.45;0.30;;;13.90;99.90;;;;;;5046198;28;20043;-82
2022/07/05 05:56:12;;;;;;;0.30;0.20;;;14.00;99.90;;;;;;5103879;28;20037;-83
2022/07/05 05:58:39;;;;;;;1.00;0.30;;;14.10;99.90;;;;;;5105431;28;20041;-81
2022/07/05 06:01:06;;;;;;;0.22;0.22;;;14.10;99.90;;;;;;5080377;28;20040;-82
2022/07/05 06:03:32;;;;;;;0.10;0.10;;;14.20;99.90;;;;;;5037405;28;20433;-84
2022/07/05 06:05:59;;;;;;;0.22;0.17;;;14.30;99.90;;;;;;5054722;28;20414;-83
2022/07/05 06:08:26;;;;;;;0.20;0.20;;;14.40;99.90;;;;;;5057581;28;20113;-83
2022/07/05 06:10:53;;;;;;;0.20;0.20;;;14.50;99.90;;;;;;5069013;28;20029;-84
2022/07/05 06:13:19;;;;;;;0.28;0.20;;;14.60;99.90;;;;;;5078793;28;20044;-82
2022/07/05 06:15:46;;;;;;;0.13;0.13;;;14.60;99.90;;;;;;5056889;28;20043;-85
2022/07/05 06:18:13;;;;;;;0.20;0.20;;;14.80;99.90;;;;;;5057372;28;20401;-83
2022/07/05 06:20:40;;;;;;;0.20;0.20;;;14.80;99.90;;;;;;5056883;28;20493;-83
2022/07/05 06:23:07;;;;;;;0.10;0.10;;;15.00;99.90;;;;;;5056379;28;20087;-82
2022/07/05 06:25:34;;;;;;;0.40;0.20;;;15.10;99.90;;;;;;5062451;28;20120;-84
2022/07/05 06:28:07;;;;;;;0.10;0.10;;;15.20;99.90;;;;;;5089959;28;20040;-84
2022/07/05 06:30:36;;;;;;;0.15;0.10;;;15.30;99.90;;;;;;5086851;28;20044;-84
2022/07/05 06:33:03;;;;;;;1.35;0.30;;;15.40;99.90;;;;;;5091598;28;20120;-82
2022/07/05 06:35:31;;;;;;;0.20;0.20;;;15.60;99.90;;;;;;5109927;28;20074;-84
2022/07/05 06:38:00;;;;;;;0.10;0.10;;;15.70;99.90;;;;;;5107702;28;20043;-84
2022/07/05 06:40:30;;;;;;;0.20;0.20;;;15.80;99.90;;;;;;5092629;28;20047;-84
2022/07/05 06:42:58;;;;;;;0.17;0.10;;;15.90;99.90;;;;;;5089689;28;20144;-83
2022/07/05 06:45:25;;;;;;;0.20;0.20;;;16.00;99.90;;;;;;5064837;28;20033;-83
2022/07/05 06:48:04;;;;;;;0.28;0.20;;;16.20;99.90;;;;;;5089377;28;20083;-83
2022/07/05 06:50:33;;;;;;;0.10;0.10;;;16.30;99.90;;;;;;5091481;28;20047;-82
2022/07/05 06:52:59;;;;;;;0.10;0.10;;;16.30;99.90;;;;;;5089494;28;20051;-83
2022/07/05 06:55:27;;;;;;;0.20;0.10;;;16.40;99.90;;;;;;5057052;28;20397;-83
2022/07/05 06:58:03;;;;;;;0.03;0.03;;;16.50;99.90;;;;;;5072609;28;20038;-83
2022/07/05 07:00:29;;;;;;;0.10;0.10;;;16.60;99.90;;;;;;5059528;28;20123;-82
2022/07/05 07:02:56;;;;;;;0.08;0.08;;;16.70;99.90;;;;;;5040057;28;20131;-81
2022/07/05 07:05:23;;;;;;;0.20;0.20;;;16.80;99.90;;;;;;5078759;28;20501;-85
2022/07/05 07:10:36;;;;;;;0.20;0.10;;;16.90;99.90;;;;;;5080071;28;20056;-82
2022/07/05 07:13:03;;;;;;;0.00;0.00;;;17.00;99.90;;;;;;5081751;28;20071;-83
2022/07/05 07:15:30;;;;;;;0.10;0.10;;;17.00;99.90;;;;;;5079548;28;20141;-81
2022/07/05 07:17:57;;;;;;;0.00;0.00;;;17.10;99.90;;;;;;5091467;28;20145;-84
2022/07/05 07:20:24;;;;;;;0.10;0.10;;;17.20;99.90;;;;;;5059873;28;20125;-82
2022/07/05 07:22:52;;;;;;;0.20;0.20;;;17.20;99.90;;;;;;5067411;28;20064;-86
2022/07/05 07:25:23;;;;;;;0.00;0.00;;;17.30;99.90;;;;;;5093194;28;20092;-83
2022/07/05 07:27:55;;;;;;;0.10;0.10;;;17.40;99.90;;;;;;5080154;28;20504;-82
2022/07/05 07:30:24;;;;;;;0.73;0.35;;;17.50;99.90;;;;;;5096179;28;20054;-81
2022/07/05 07:32:51;;;;;;;0.10;0.10;;;17.50;99.90;;;;;;5096813;28;20125;-80
2022/07/05 07:35:18;;;;;;;0.20;0.10;;;17.50;99.90;;;;;;5095767;28;20462;-82
2022/07/05 07:37:46;;;;;;;0.22;0.20;;;17.40;99.90;;;;;;5113512;28;20075;-82
2022/07/05 07:40:13;;;;;;;0.10;0.05;;;17.50;99.90;;;;;;5096115;28;20467;-82
2022/07/05 07:42:40;;;;;;;0.00;0.00;;;17.50;99.90;;;;;;5090030;28;20105;-84
2022/07/05 07:45:07;;;;;;;0.15;0.15;;;17.40;99.90;;;;;;5081615;28;20044;-83
2022/07/05 07:47:35;;;;;;;0.03;0.00;;;17.40;99.90;;;;;;5118331;28;20447;-83
2022/07/05 07:50:04;;;;;;;0.00;0.00;;;17.50;99.90;;;;;;5078851;28;20123;-84
2022/07/05 07:52:33;;;;;;;0.40;0.28;;;17.60;99.90;;;;;;5098453;28;20082;-84
2022/07/05 07:55:01;;;;;;;0.00;0.00;;;17.80;99.90;;;;;;5043430;28;20041;-83
2022/07/05 07:57:28;;;;;;;0.10;0.10;;;17.90;99.90;;;;;;5092258;28;20468;-87
2022/07/05 07:59:55;;;;;;;0.00;0.00;;;18.00;99.90;;;;;;5062275;28;20048;-84
2022/07/05 08:02:22;;;;;;;0.00;0.00;;;18.00;99.90;;;;;;5059220;28;20044;-84
2022/07/05 08:04:50;;;;;;;3.30;0.22;;;17.90;99.90;;;;;;5109411;28;20127;-88
2022/07/05 08:07:18;;;;;;;0.13;0.00;;;18.10;99.90;;;;;;5067720;28;20048;-87
2022/07/05 08:09:45;;;;;;;0.10;0.10;;;18.20;99.90;;;;;;5092684;28;20138;-86
2022/07/05 08:12:13;;;;;;;0.45;0.20;;;18.20;99.90;;;;;;5094777;28;20032;-84
2022/07/05 08:14:40;;;;;;;0.10;0.10;;;18.30;99.90;;;;;;5059610;28;20071;-84
2022/07/05 08:17:08;;;;;;;0.52;0.17;;;18.40;99.90;;;;;;5066493;28;20144;-86
2022/07/05 08:22:21;;;;;;;0.10;0.10;;;18.50;99.90;;;;;;5073129;28;20075;-86
2022/07/05 08:24:48;;;;;;;0.00;0.00;;;18.70;99.90;;;;;;5059724;28;20079;-85
2022/07/05 08:27:15;;;;;;;0.00;0.00;;;18.90;99.90;;;;;;5075411;28;20454;-85
2022/07/05 08:29:43;;;;;;;0.08;0.08;;;19.10;99.90;;;;;;5040521;28;20092;-86
2022/07/05 08:32:10;;;;;;;0.10;0.10;;;19.30;99.90;;;;;;5056183;28;20045;-83
2022/07/05 08:34:37;;;;;;;0.10;0.10;;;19.50;99.90;;;;;;5077737;28;20041;-83
2022/07/05 08:37:04;;;;;;;1.08;0.17;;;19.70;99.90;;;;;;5055186;28;20032;-83
2022/07/05 08:39:31;;;;;;;0.20;0.13;;;19.60;99.90;;;;;;5068093;28;20038;-83
2022/07/05 08:41:59;;;;;;;0.00;0.00;;;19.60;99.90;;;;;;5062970;28;20106;-85
2022/07/05 08:44:29;;;;;;;0.00;0.00;;;19.60;99.90;;;;;;5088174;28;20043;-85
2022/07/05 08:46:57;;;;;;;0.10;0.10;;;19.60;99.90;;;;;;5088121;28;20041;-86
2022/07/05 08:49:28;;;;;;;0.25;0.05;;;19.50;99.90;;;;;;5103562;28;20041;-85
2022/07/05 08:51:55;;;;;;;0.00;0.00;;;19.50;99.90;;;;;;5096353;28;20060;-85
2022/07/05 08:54:24;;;;;;;0.40;0.25;;;19.30;99.90;;;;;;5074536;28;20178;-83
2022/07/05 08:56:51;;;;;;;0.00;0.00;;;19.20;99.90;;;;;;5054714;28;20383;-84
2022/07/05 08:59:18;;;;;;;0.20;0.10;;;19.20;99.90;;;;;;5054741;28;20127;-85
2022/07/05 09:01:47;;;;;;;1.08;0.08;;;19.00;99.90;;;;;;5054367;28;20537;-85
2022/07/05 09:04:16;;;;;;;1.65;0.30;;;19.00;99.90;;;;;;5053328;28;20044;-86
2022/07/05 09:06:47;;;;;;;0.10;0.10;;;18.90;99.90;;;;;;5054157;28;20044;-83
2022/07/05 09:09:17;;;;;;;0.10;0.10;;;19.00;99.90;;;;;;5054199;28;20044;-83
2022/07/05 09:11:46;;;;;;;0.00;0.00;;;19.20;99.90;;;;;;5054552;28;20494;-85
2022/07/05 09:14:31;;;;;;;0.00;0.00;;;19.30;99.90;;;;;;5054154;28;20040;-83
2022/07/05 09:16:58;;;;;;;0.15;0.15;;;19.50;99.90;;;;;;5054439;28;20068;-84
2022/07/05 09:19:25;;;;;;;0.05;0.05;;;19.70;99.90;;;;;;5037976;28;20084;-87
2022/07/05 09:22:03;;;;;;;0.15;0.15;;;19.50;99.90;;;;;;5047306;28;20040;-86
2022/07/05 09:24:31;;;;;;;0.00;0.00;;;19.40;99.90;;;;;;5103439;28;20040;-84
2022/07/05 09:27:05;;;;;;;0.03;0.03;;;19.30;99.90;;;;;;5086265;28;20057;-89
2022/07/05 09:29:32;;;;;;;0.10;0.08;;;19.30;99.90;;;;;;5111379;28;20566;-86
2022/07/05 09:31:58;;;;;;;0.10;0.10;;;19.40;99.90;;;;;;5073749;28;20493;-85
2022/07/05 09:34:27;;;;;;;0.10;0.00;;;19.40;99.90;;;;;;5060038;28;20111;-87
2022/07/05 09:37:03;;;;;;;0.10;0.10;;;19.70;99.90;;;;;;5071738;28;20482;-84
2022/07/05 09:39:33;;;;;;;2.08;0.22;;;19.60;99.90;;;;;;5076180;28;20055;-84
2022/07/05 09:42:25;;;;;;;0.10;0.10;;;19.40;99.90;;;;;;5082947;28;20056;-85
2022/07/05 09:44:54;;;;;;;0.10;0.10;;;19.20;99.90;;;;;;5082610;28;20041;-87
2022/07/05 09:47:22;;;;;;;0.10;0.08;;;19.30;99.90;;;;;;5065586;28;20505;-83
2022/07/05 09:49:51;;;;;;;0.00;0.00;;;19.60;99.90;;;;;;5073521;28;20045;-84
2022/07/05 09:52:28;;;;;;;0.10;0.10;;;19.80;99.90;;;;;;5107037;28;20072;-87
2022/07/05 09:55:09;;;;;;;0.15;0.08;;;20.10;99.90;;;;;;5052948;28;20041;-86
2022/07/05 09:57:39;;;;;;;0.10;0.10;;;20.00;99.90;;;;;;5073446;28;20116;-86
2022/07/05 10:00:06;;;;;;;0.43;0.22;;;20.20;99.90;;;;;;5065707;28;20040;-85
2022/07/05 10:02:40;;;;;;;0.10;0.10;;;20.10;99.90;;;;;;5083271;28;20034;-85
2022/07/05 10:05:19;;;;;;;0.05;0.00;;;20.30;99.90;;;;;;5089967;28;20046;-86
2022/07/05 10:07:48;;;;;;;0.20;0.10;;;20.20;99.90;;;;;;5106428;28;20578;-84
2022/07/05 10:10:17;;;;;;;0.10;0.10;;;20.20;99.90;;;;;;5073101;28;20037;-84
2022/07/05 10:12:47;;;;;;;0.05;0.05;;;20.10;99.90;;;;;;5073396;28;20127;-86
2022/07/05 10:15:20;;;;;;;0.05;0.05;;;20.10;99.90;;;;;;5089925;28;20064;-86
2022/07/05 10:18:10;;;;;;;0.20;0.10;;;19.90;99.90;;;;;;5107097;28;20052;-87
2022/07/05 10:20:37;;;;;;;0.10;0.10;;;19.80;99.90;;;;;;5097968;28;20622;-87
2022/07/05 10:23:05;;;;;;;0.00;0.00;;;20.10;99.90;;;;;;5104270;28;20073;-86
2022/07/05 10:25:34;;;;;;;0.10;0.10;;;20.20;99.90;;;;;;5096789;28;20101;-84
2022/07/05 10:28:02;;;;;;;0.08;0.08;;;20.10;99.90;;;;;;5107526;28;20039;-86
2022/07/05 10:30:29;;;;;;;0.22;0.22;;;20.00;99.70;;;;;;5061483;28;20067;-86
2022/07/05 10:32:56;;;;;;;0.10;0.10;;;20.20;99.80;;;;;;5061468;28;20033;-83
2022/07/05 10:35:24;;;;;;;0.38;0.20;;;20.50;99.90;;;;;;5089521;28;20072;-83
2022/07/05 10:37:51;;;;;;;0.10;0.10;;;20.40;99.40;;;;;;5056328;28;20037;-87
2022/07/05 10:40:18;;;;;;;0.15;0.10;;;20.20;99.90;;;;;;5086828;28;20400;-86
2022/07/05 10:42:54;;;;;;;0.10;0.10;;;20.20;99.80;;;;;;5089491;28;20041;-86
2022/07/05 10:45:24;;;;;;;0.17;0.10;;;20.30;99.90;;;;;;5089466;28;20409;-83
2022/07/05 10:48:09;;;;;;;0.10;0.10;;;20.40;98.30;;;;;;5105766;28;20446;-83
2022/07/05 10:50:53;;;;;;;0.10;0.10;;;20.40;99.20;;;;;;5059036;28;20036;-82
2022/07/05 10:53:27;;;;;;;0.00;0.00;;;20.40;99.30;;;;;;5110464;28;20088;-84
2022/07/05 10:55:56;;;;;;;0.40;0.13;;;20.30;99.90;;;;;;5092639;28;20086;-86
2022/07/05 10:58:29;;;;;;;0.45;0.40;;;20.10;99.90;;;;;;5092466;28;20076;-86
2022/07/05 11:01:20;;;;;;;0.05;0.05;;;20.20;99.90;;;;;;5123092;28;20040;-86
2022/07/05 11:04:10;;;;;;;0.10;0.10;;;20.30;99.70;;;;;;5072553;28;20405;-87
2022/07/05 11:06:46;;;;;;;0.10;0.08;;;20.40;99.90;;;;;;5079758;28;20043;-86
2022/07/05 11:09:14;;;;;;;;;;;20.30;99.90;;;;;;5066073;28;20048;-83
2022/07/05 11:11:43;;;;;;;0.10;0.10;;;20.10;99.20;;;;;;5057576;28;19973;-87
2022/07/05 11:14:19;;;;;;;0.00;0.00;;;20.30;99.50;;;;;;5055457;28;20052;-83
2022/07/05 11:16:47;;;;;;;0.10;0.10;;;20.40;99.90;;;;;;5072543;28;20071;-85
2022/07/05 11:19:17;;;;;;;0.45;0.22;;;20.40;99.90;;;;;;5059836;28;20080;-85
2022/07/05 11:22:05;;;;;;;0.40;0.20;;;20.00;99.90;;;;;;5070474;28;20471;-86
2022/07/05 11:24:34;;;;;;;0.10;0.10;;;20.10;99.90;;;;;;5102352;28;20037;-83
2022/07/05 11:27:03;;;;;;;0.00;0.00;;;20.30;99.90;;;;;;5053364;28;20138;-83
2022/07/05 11:29:46;;;;;;;0.20;0.20;;;20.70;99.10;;;;;;5089093;28;20052;-86
2022/07/05 11:32:14;;;;;;;0.17;0.10;;;20.70;97.50;;;;;;5056774;28;20504;-83
2022/07/05 11:34:42;;;;;;;0.52;0.20;;;20.60;97.70;;;;;;5072738;28;20105;-86
2022/07/05 11:37:34;;;;;;;0.28;0.20;;;20.90;99.20;;;;;;5056286;28;20485;-86
2022/07/05 11:40:09;;;;;;;0.10;0.10;;;21.30;98.80;;;;;;5068189;28;20045;-86
2022/07/05 11:42:39;;;;;;;0.43;0.17;;;21.20;98.50;;;;;;5069373;28;20045;-83
2022/07/05 11:45:07;;;;;;;0.13;0.10;;;21.10;97.20;;;;;;5086176;28;20045;-84
2022/07/05 11:47:35;;;;;;;0.00;0.00;;;20.90;96.80;;;;;;5085752;28;20508;-83
2022/07/05 11:50:02;;;;;;;0.10;0.10;;;21.00;98.70;;;;;;5106436;28;20040;-84
2022/07/05 11:52:35;;;;;;;0.13;0.08;;;21.10;98.40;;;;;;5095404;28;20039;-84
2022/07/05 11:55:05;;;;;;;0.08;0.08;;;21.20;97.80;;;;;;5096489;28;20461;-87
2022/07/05 11:57:32;;;;;;;0.17;0.15;;;21.30;97.40;;;;;;5089290;28;20036;-87
2022/07/05 11:59:58;;;;;;;0.25;0.10;;;21.20;97.10;;;;;;5097148;28;20045;-86
2022/07/05 12:02:25;;;;;;;0.10;0.10;;;21.30;96.80;;;;;;5111715;28;20040;-83
2022/07/05 12:04:55;;;;;;;0.20;0.20;;;21.30;97.20;;;;;;5125036;28;20075;-84
2022/07/05 12:07:28;;;;;;;0.10;0.10;;;21.50;98.00;;;;;;5145834;28;20613;-87
2022/07/05 12:12:43;;;;;;;;;;;21.00;96.40;;;;;;5077357;28;20121;-85
2022/07/05 12:15:18;;;;;;;0.10;0.10;;;20.70;97.30;;;;;;5108812;28;19920;-83
2022/07/05 12:17:50;;;;;;;0.15;0.15;;;20.60;97.60;;;;;;5090223;28;20505;-84
2022/07/05 12:20:23;;;;;;;0.00;0.00;;;20.40;97.00;;;;;;5057881;28;20402;-83
2022/07/05 12:22:51;;;;;;;0.20;0.20;;;20.40;96.60;;;;;;5057108;28;20084;-85
2022/07/05 12:25:20;;;;;;;0.10;0.00;;;20.50;97.90;;;;;;5094702;28;20044;-85
2022/07/05 12:27:48;;;;;;;0.00;0.00;;;20.80;97.30;;;;;;5091135;28;20115;-85
2022/07/05 12:30:16;;;;;;;0.00;0.00;;;20.90;97.30;;;;;;5060125;28;20099;-84
2022/07/05 12:33:13;;;;;;;0.10;0.10;;;21.00;99.10;;;;;;5074537;28;20040;-84
2022/07/05 12:35:41;;;;;;;0.15;0.15;;;20.90;99.60;;;;;;5041416;28;20109;-84
2022/07/05 12:38:12;;;;;;;0.30;0.20;;;20.90;99.90;;;;;;5079941;28;20126;-84
2022/07/05 12:40:39;;;;;;;0.00;0.00;;;21.00;99.90;;;;;;5074090;28;20045;-83
2022/07/05 12:43:13;;;;;;;0.75;0.25;;;20.90;99.90;;;;;;5074614;28;20508;-84
2022/07/05 12:45:43;;;;;;;0.47;0.30;;;20.70;99.90;;;;;;5090883;28;20105;-84
2022/07/05 12:48:11;;;;;;;0.85;0.20;;;20.80;99.90;;;;;;5074140;28;20044;-85
2022/07/05 12:50:49;;;;;;;0.35;0.20;;;21.00;99.90;;;;;;5073907;28;20044;-84
2022/07/05 12:58:49;;;;;;;0.10;0.10;;;20.80;99.90;;;;;;5090530;28;20045;-84
2022/07/05 13:01:38;;;;;;;0.35;0.28;;;20.50;99.90;;;;;;5091043;28;20036;-85
2022/07/05 13:04:08;;;;;;;0.25;0.15;;;20.40;99.90;;;;;;5084338;28;20041;-85
2022/07/05 13:06:56;;;;;;;0.00;0.00;;;20.30;99.90;;;;;;5093851;28;20783;-85
2022/07/05 13:09:31;;;;;;;0.10;0.10;;;20.30;99.90;;;;;;5127046;28;20036;-85